Аэропорт: Витязево. Анапа

ICAO: URKA

METAR:
2018/05/20 23:00
URKA 202300Z AUTO 10001MPS 9000 // NCD 13/13 Q1014 RMK QFE756/1008
METAR:
2018/05/20 21:57
TAF 
      AMD TAF 
      AMD URKA 202053Z 2021/2121 CNL